• Join FlightAware (Why Join?)
  • Login
  • US Flag 
06:15AM EDT


 

Airport Tracker/Info


-or-


 

Live Flight TrackerFlight Track Log ✈ ASQ5685 ✈ 26-Apr-2013 ✈ KBTV - KIAD

Flight Track Log - Related Links

Times and Time Zones

All times are in EDT time to prevent confusion due to time zone crossing. See the ASQ5685 flight status page for this flight to view local times or setup timezone preferences in your user account.

Time Position Orientation Groundspeed Altitude Reporting Facility
EDT Latitude Longitude Course Direction KTS MPH feet Rate Location/Type
02:48PM 44.5025 -73.2172 195° South 184 212 2,900  Level Boston Center
02:49PM 44.4772 -73.2692 236° Southwest 189 217 6,000 2,700 Climbing Boston Center
02:50PM 44.1106 -73.2825 196° South  Level FlightAware Approximate
02:50PM 44.4433 -73.3297 232° Southwest 189 217 8,400  Level Boston Center
02:51PM 44.0218 -73.3180 196° South  Level FlightAware Approximate
02:51PM 44.3744 -73.3461 190° South 229 264 10,400  Level Boston Center
02:52PM 43.9330 -73.3535 196° South  Level FlightAware Approximate
02:52PM 44.3158 -73.3628 192° South 256 295 12,200  Level Boston Center
02:53PM 43.8439 -73.3874 195° South  Level FlightAware Approximate
02:53PM 44.2178 -73.3903 191° South 312 359 13,500  Level Boston Center
02:54PM 44.1197 -73.4206 192° South 350 403 14,800 1,320 Climbing Boston Center
02:55PM 44.0172 -73.4475 191° South 377 434 16,200 1,380 Climbing Boston Center
02:56PM 43.9108 -73.4775 191° South 388 447 17,600 960 Climbing Boston Center
02:57PM 43.8231 -73.5047 193° South 396 456 18,200 1,140 Climbing Boston Center
02:58PM 43.6808 -73.5453 192° South 402 463 19,900 1,260 Climbing Boston Center
02:59PM 43.5806 -73.5722 191° South 407 468 20,800 840 Climbing Boston Center
03:00PM 43.4700 -73.6017 191° South 407 468 21,800 960 Climbing Boston Center
03:01PM 43.3319 -73.6389 191° South 417 480 23,000 1,080 Climbing Boston Center
03:02PM 43.2211 -73.6708 192° South 417 480 24,000 960 Climbing Boston Center
03:03PM 43.0956 -73.7111 193° South 412 474 25,000 960 Climbing Boston Center
03:04PM 42.9808 -73.7400 190° South 412 474 26,000 480 Climbing Boston Center
03:05PM 42.8678 -73.7686 191° South 417 480 26,000  Level Boston Center
03:06PM 42.7444 -73.8083 193° South 428 493 26,000  Level Boston Center
03:07PM 42.6269 -73.8622 199° South 443 510 26,000  Level Boston Center
03:08PM 42.5097 -73.9131 198° South 448 516 26,000  Level Boston Center
03:09PM 42.3900 -73.9694 199° South 448 516 26,000  Level Boston Center
03:10PM 42.2686 -74.0225 198° South 454 522 26,000  Level Boston Center
03:11PM 42.1411 -74.0444 187° South 454 522 26,000  Level Boston Center
03:12PM 42.0075 -74.0522 182° South 468 539 26,000  Level Boston Center
03:13PM 41.8803 -74.0572 182° South 468 539 26,000  Level Boston Center
03:15PM 41.5736 -74.0708 182° South 472 543 26,000  Level New York Center
03:16PM 41.4442 -74.0811 183° South 462 532 26,000  Level New York Center
03:17PM 41.3172 -74.0858 182° South 462 532 26,000  Level New York Center
03:18PM 41.1919 -74.0936 183° South 462 532 26,000  Level New York Center
03:19PM 41.1000 -74.1797 215° Southwest 405 466 26,000  Level New York Center
03:20PM 41.0467 -74.2928 238° Southwest 396 456 26,000  Level New York Center
03:21PM 40.9889 -74.4106 237° Southwest 387 445 26,000  Level New York Center
03:22PM 40.9331 -74.5311 239° Southwest 392 451 26,000  Level New York Center
03:23PM 40.8747 -74.6542 238° Southwest 392 451 26,000  Level New York Center
03:24PM 40.8208 -74.7744 239° Southwest 387 445 26,000  Level New York Center
03:25PM 40.7708 -74.8950 241° Southwest 387 445 26,000  Level New York Center
03:26PM 40.7167 -75.0122 239° Southwest 381 438 26,000  Level New York Center
03:27PM 40.6625 -75.1292 239° Southwest 381 438 26,000  Level New York Center
03:28PM 40.6081 -75.2486 239° Southwest 381 438 26,000  Level New York Center
03:29PM 40.5533 -75.3653 238° Southwest 381 438 26,000 -600 Level New York Center
03:30PM 40.4986 -75.4844 239° Southwest 381 438 24,800 -1,440 Descending New York Center
03:31PM 40.4483 -75.5956 239° Southwest 376 433 23,100 -1,740 Descending New York Center
03:32PM 40.3978 -75.7092 240° Southwest 370 426 21,400 -1,620 Descending New York Center
03:33PM 40.3431 -75.8225 238° Southwest 370 426 20,000 -720 Descending New York Center
03:34PM 40.2903 -75.9328 238° Southwest 370 426 20,000 -180 Level New York Center
03:35PM 40.2375 -76.0406 237° Southwest 370 426 19,700 -1,080 Descending New York Center
03:36PM 40.1864 -76.1589 241° Southwest 355 409 17,900 -1,500 Descending New York Center
03:37PM 40.1358 -76.2581 236° Southwest 338 389 16,800 -1,380 Descending New York Center
03:38PM 40.0939 -76.3525 240° Southwest 338 389 15,300 -720 Descending New York Center
03:40PM 40.0167 -76.5333 241° Southwest 328 377 15,000 -120 Descending Potomac TRACON
03:41PM 39.9667 -76.6333 237° Southwest 335 386 15,000  Level Potomac TRACON
03:42PM 39.9167 -76.7333 237° Southwest 337 388 15,000  Level Potomac TRACON
03:43PM 39.8667 -76.8333 237° Southwest 333 383 15,000 -180 Level Potomac TRACON
03:44PM 39.8167 -76.9333 237° Southwest 328 377 14,700 -540 Descending Potomac TRACON
03:45PM 39.7833 -77.0333 247° West 315 362 14,000 -360 Descending Potomac TRACON
03:46PM 39.7333 -77.1167 232° Southwest 314 361 14,000 -1,080 Level Potomac TRACON
03:47PM 39.6833 -77.2167 237° Southwest 312 359 11,900 -2,040 Descending Potomac TRACON
03:48PM 39.6500 -77.3167 247° West 298 343 10,000 -1,080 Descending Potomac TRACON
03:49PM 39.5667 -77.3500 197° South 268 308 9,800 -1,080 Descending Potomac TRACON
03:50PM 39.5000 -77.3500 180° South 279 321 7,900 -1,440 Descending Potomac TRACON
03:51PM 39.4167 -77.3667 189° South 269 310 7,000 -780 Descending Potomac TRACON
03:52PM 39.3500 -77.3667 180° South 255 293 6,400 -900 Descending Potomac TRACON
03:54PM 39.2167 -77.3667 180° South 246 283 4,400 -600 Descending Potomac TRACON
03:56PM 39.0833 -77.3500 174° South 242 278 4,000 -240 Descending Potomac TRACON
03:57PM 39.0167 -77.3667 191° South 224 258 3,800 -540 Descending Potomac TRACON
03:58PM 38.9500 -77.3500 169° South 220 253 3,000 -420 Descending Potomac TRACON
03:59PM 38.8833 -77.3667 191° South 222 255 3,000 -60 Level Potomac TRACON
04:00PM 38.8333 -77.3667 180° South 225 259 2,900 -60 Descending Potomac TRACON
04:01PM 38.7667 -77.3667 180° South 201 231 2,900 -480 Level Potomac TRACON
04:02PM 38.7667 -77.4333 270° West 201 231 2,000 -480 Descending Potomac TRACON
04:03PM 38.8167 -77.4333 360° North 189 217 2,000 -300 Level Potomac TRACON
04:04PM 38.8667 -77.4333 360° North 150 173 1,500 -60 Descending Potomac TRACON
04:05PM 38.9167 -77.4333 360° North 169 194 1,900 240 Climbing Potomac TRACON
04:06PM 38.9667 -77.4333 360° North 180 207 2,000 60 Climbing Potomac TRACON